Time;durP1;ratioP1;P1;durP2;ratioP2;P2;SDS_P1;SDS_P2;PMS_P1;PMS_P2;Temp;Humidity;BMP_temperature;BMP_pressure;BME280_temperature;BME280_humidity;BME280_pressure;Samples;Min_cycle;Max_cycle;Signal;HPM_P1;HPM_P2
2022/12/13 00:01:11;;;;;;;;;;;18.30;34.80;;;;;;5098668;28;19923;-61
2022/12/13 00:03:37;;;;;;;;;;;18.40;34.80;;;;;;5099979;28;19920;-61
2022/12/13 00:06:04;;;;;;;;;;;18.30;34.80;;;;;;5096601;28;20273;-61
2022/12/13 00:08:31;;;;;;;;;;;18.40;35.00;;;;;;5096695;28;19920;-61
2022/12/13 00:11:01;;;;;;;;;;;18.30;34.90;;;;;;5134072;27;19920;-61
2022/12/13 00:13:28;;;;;;;;;;;18.40;35.00;;;;;;5088167;28;19970;-61
2022/12/13 00:15:59;;;;;;;;;;;18.40;35.10;;;;;;5097753;28;19920;-61
2022/12/13 00:18:26;;;;;;;;;;;18.40;35.10;;;;;;5092752;28;19919;-61
2022/12/13 00:20:53;;;;;;;;;;;18.40;35.20;;;;;;5098448;28;19920;-60
2022/12/13 00:23:19;;;;;;;;;;;18.30;35.10;;;;;;5113703;27;19947;-61
2022/12/13 00:25:46;;;;;;;;;;;18.40;35.20;;;;;;5111038;28;19920;-62
2022/12/13 00:28:13;;;;;;;;;;;18.40;35.20;;;;;;5088862;28;19988;-60
2022/12/13 00:30:40;;;;;;;;;;;18.40;35.30;;;;;;5096088;28;19955;-61
2022/12/13 00:33:08;;;;;;;;;;;18.40;35.30;;;;;;5093399;28;19920;-61
2022/12/13 00:35:39;;;;;;;;;;;18.40;35.30;;;;;;5112485;28;19919;-62
2022/12/13 00:38:06;;;;;;;;;;;18.40;35.30;;;;;;5096400;28;19950;-61
2022/12/13 00:40:32;;;;;;;;;;;18.40;35.40;;;;;;5107007;27;19920;-61
2022/12/13 00:42:59;;;;;;;;;;;18.40;35.40;;;;;;5107760;28;20259;-61
2022/12/13 00:45:26;;;;;;;;;;;18.40;35.40;;;;;;5096011;28;19927;-60
2022/12/13 00:47:53;;;;;;;;;;;18.40;35.50;;;;;;5085898;28;19926;-62
2022/12/13 00:50:21;;;;;;;;;;;18.40;35.50;;;;;;5113934;28;20278;-61
2022/12/13 00:52:48;;;;;;;;;;;18.40;35.50;;;;;;5093044;28;20001;-61
2022/12/13 00:55:15;;;;;;;;;;;18.40;35.60;;;;;;5129667;27;19920;-61
2022/12/13 00:57:41;;;;;;;;;;;18.40;35.60;;;;;;5114158;28;19920;-61
2022/12/13 01:00:09;;;;;;;;;;;18.40;35.70;;;;;;5097819;28;20034;-61
2022/12/13 01:02:35;;;;;;;;;;;18.40;35.70;;;;;;5096201;28;19920;-61
2022/12/13 01:05:02;;;;;;;;;;;18.40;35.70;;;;;;5095068;28;19950;-61
2022/12/13 01:07:30;;;;;;;;;;;18.40;35.70;;;;;;5083552;28;19923;-61
2022/12/13 01:09:57;;;;;;;;;;;18.40;35.70;;;;;;5093866;28;19966;-60
2022/12/13 01:12:24;;;;;;;;;;;18.40;35.70;;;;;;5084096;28;19974;-61
2022/12/13 01:14:51;;;;;;;;;;;18.40;35.70;;;;;;5110515;28;19931;-61
2022/12/13 01:17:17;;;;;;;;;;;18.40;35.80;;;;;;5095291;28;19920;-61
2022/12/13 01:19:44;;;;;;;;;;;18.40;35.80;;;;;;5094344;28;19970;-62
2022/12/13 01:22:11;;;;;;;;;;;18.40;36.40;;;;;;5096341;28;19947;-62
2022/12/13 01:24:40;;;;;;;;;;;18.40;35.80;;;;;;5095534;28;19931;-61
2022/12/13 01:27:06;;;;;;;;;;;18.40;35.80;;;;;;5096949;28;20727;-61
2022/12/13 01:29:33;;;;;;;;;;;18.40;35.80;;;;;;5113637;28;19969;-61
2022/12/13 01:32:00;;;;;;;;;;;18.40;35.80;;;;;;5094025;28;19920;-61
2022/12/13 01:34:27;;;;;;;;;;;18.40;35.80;;;;;;5096845;28;19970;-61
2022/12/13 01:36:54;;;;;;;;;;;18.40;35.90;;;;;;5095182;28;20408;-61
2022/12/13 01:39:21;;;;;;;;;;;18.40;35.90;;;;;;5095742;28;19978;-61
2022/12/13 01:41:49;;;;;;;;;;;18.40;35.90;;;;;;5097956;28;19919;-62
2022/12/13 01:44:35;;;;;;;;;;;18.40;35.90;;;;;;5095177;28;19927;-62
2022/12/13 01:47:01;;;;;;;;;;;18.40;35.90;;;;;;5096587;28;20308;-62
2022/12/13 01:49:28;;;;;;;;;;;18.40;36.00;;;;;;5097624;28;19920;-61
2022/12/13 01:51:56;;;;;;;;;;;18.40;36.00;;;;;;5112589;28;20396;-62
2022/12/13 01:54:23;;;;;;;;;;;18.50;36.10;;;;;;5113805;28;19920;-61
2022/12/13 01:56:51;;;;;;;;;;;18.40;36.00;;;;;;5097350;28;19920;-62
2022/12/13 01:59:18;;;;;;;;;;;18.50;36.10;;;;;;5115936;28;19931;-61
2022/12/13 02:01:45;;;;;;;;;;;18.40;36.00;;;;;;5085232;28;19920;-62
2022/12/13 02:04:12;;;;;;;;;;;18.40;36.10;;;;;;5111201;28;20392;-62
2022/12/13 02:06:40;;;;;;;;;;;18.40;36.10;;;;;;5111143;28;19919;-60
2022/12/13 02:09:07;;;;;;;;;;;18.40;36.10;;;;;;5112657;28;19927;-62
2022/12/13 02:11:34;;;;;;;;;;;18.40;36.10;;;;;;5132044;27;20033;-62
2022/12/13 02:14:02;;;;;;;;;;;18.40;36.70;;;;;;5113122;28;20238;-61
2022/12/13 02:16:34;;;;;;;;;;;18.40;36.10;;;;;;5129904;27;19919;-62
2022/12/13 02:19:06;;;;;;;;;;;18.40;36.10;;;;;;5095780;28;19969;-62
2022/12/13 02:21:33;;;;;;;;;;;18.50;36.20;;;;;;5094873;28;19920;-61
2022/12/13 02:24:18;;;;;;;;;;;18.40;36.20;;;;;;5131567;27;19920;-61
2022/12/13 02:27:03;;;;;;;;;;;18.50;36.30;;;;;;5096227;28;19920;-61
2022/12/13 02:29:44;;;;;;;;;;;18.40;36.20;;;;;;5090042;28;19955;-61
2022/12/13 02:32:15;;;;;;;;;;;18.40;36.20;;;;;;5085040;28;19920;-61
2022/12/13 02:34:43;;;;;;;;;;;18.50;36.30;;;;;;5096949;28;19961;-61
2022/12/13 02:37:11;;;;;;;;;;;18.40;36.20;;;;;;5094437;28;19947;-61
2022/12/13 02:39:39;;;;;;;;;;;18.40;36.20;;;;;;5095915;28;19970;-61
2022/12/13 02:42:07;;;;;;;;;;;18.50;36.30;;;;;;5096254;28;19920;-61
2022/12/13 02:44:37;;;;;;;;;;;18.50;36.40;;;;;;5111901;28;20033;-61
2022/12/13 02:47:05;;;;;;;;;;;18.50;36.40;;;;;;5115136;28;19974;-61
2022/12/13 02:49:34;;;;;;;;;;;18.50;36.40;;;;;;5112581;28;19923;-61
2022/12/13 02:52:01;;;;;;;;;;;18.50;36.40;;;;;;5094728;28;19920;-63
2022/12/13 02:54:28;;;;;;;;;;;18.50;36.40;;;;;;5095742;28;19924;-61
2022/12/13 02:56:54;;;;;;;;;;;18.50;36.40;;;;;;5110118;28;20316;-61
2022/12/13 02:59:21;;;;;;;;;;;18.50;36.40;;;;;;5086077;28;19981;-61
2022/12/13 03:01:49;;;;;;;;;;;18.50;36.40;;;;;;5094970;28;19942;-62
2022/12/13 03:04:19;;;;;;;;;;;18.50;36.40;;;;;;5113608;28;19924;-61
2022/12/13 03:06:48;;;;;;;;;;;18.50;36.40;;;;;;5095851;28;19920;-62
2022/12/13 03:09:24;;;;;;;;;;;18.50;36.40;;;;;;5096012;28;19926;-61
2022/12/13 03:14:45;;;;;;;;;;;18.50;36.50;;;;;;5092037;28;19920;-62
2022/12/13 03:17:12;;;;;;;;;;;18.50;36.50;;;;;;5094319;28;20291;-61
2022/12/13 03:19:39;;;;;;;;;;;18.50;36.50;;;;;;5084784;28;19919;-61
2022/12/13 03:22:07;;;;;;;;;;;18.50;36.50;;;;;;5110095;28;19924;-61
2022/12/13 03:24:33;;;;;;;;;;;18.50;36.50;;;;;;5094504;28;19927;-61
2022/12/13 03:27:00;;;;;;;;;;;18.50;36.50;;;;;;5094814;28;19920;-61
2022/12/13 03:29:27;;;;;;;;;;;18.50;36.50;;;;;;5094219;28;19920;-61
2022/12/13 03:31:54;;;;;;;;;;;18.50;36.50;;;;;;5107325;28;19927;-61
2022/12/13 03:34:20;;;;;;;;;;;18.50;36.50;;;;;;5103398;28;19920;-61
2022/12/13 03:36:47;;;;;;;;;;;18.50;36.50;;;;;;5097522;28;19959;-61
2022/12/13 03:39:15;;;;;;;;;;;18.50;36.60;;;;;;5095826;28;19973;-62
2022/12/13 03:41:42;;;;;;;;;;;18.50;36.60;;;;;;5106337;28;19946;-61
2022/12/13 03:44:09;;;;;;;;;;;18.50;36.60;;;;;;5093082;28;19927;-62
2022/12/13 03:46:36;;;;;;;;;;;18.50;36.60;;;;;;5094659;28;19920;-62
2022/12/13 03:49:03;;;;;;;;;;;18.50;36.60;;;;;;5112478;28;19920;-62
2022/12/13 03:51:29;;;;;;;;;;;18.50;36.60;;;;;;5095056;28;19927;-62
2022/12/13 03:53:56;;;;;;;;;;;18.50;36.60;;;;;;5106463;28;19927;-62
2022/12/13 03:56:25;;;;;;;;;;;18.50;36.60;;;;;;5124082;28;19920;-62
2022/12/13 03:58:51;;;;;;;;;;;18.50;36.60;;;;;;5092111;28;19920;-62
2022/12/13 04:01:18;;;;;;;;;;;18.50;36.60;;;;;;5092083;28;20373;-62
2022/12/13 04:03:45;;;;;;;;;;;18.50;36.60;;;;;;5092853;28;19927;-62
2022/12/13 04:06:12;;;;;;;;;;;18.50;36.60;;;;;;5093191;28;19930;-62
2022/12/13 04:08:39;;;;;;;;;;;18.50;36.60;;;;;;5091323;28;19985;-60
2022/12/13 04:13:31;;;;;;;;;;;18.50;36.70;;;;;;5111658;28;19962;-61
2022/12/13 04:14:05;;;;;;;;;;;18.50;36.70;;;;;;5094750;28;19927;-62
2022/12/13 04:16:32;;;;;;;;;;;18.50;36.70;;;;;;5095344;28;19951;-61
2022/12/13 04:18:58;;;;;;;;;;;18.50;36.70;;;;;;5093563;28;19920;-62
2022/12/13 04:21:25;;;;;;;;;;;18.50;36.70;;;;;;5096029;28;19920;-61
2022/12/13 04:23:53;;;;;;;;;;;18.50;36.70;;;;;;5092889;28;20345;-60
2022/12/13 04:26:22;;;;;;;;;;;18.50;36.70;;;;;;5114025;28;19938;-61
2022/12/13 04:28:49;;;;;;;;;;;18.50;36.70;;;;;;5093356;28;19969;-61
2022/12/13 04:31:17;;;;;;;;;;;18.50;36.80;;;;;;5095892;28;19969;-61
2022/12/13 04:33:44;;;;;;;;;;;18.50;36.80;;;;;;5092912;28;19969;-62
2022/12/13 04:36:10;;;;;;;;;;;18.50;36.80;;;;;;5112016;28;19973;-61
2022/12/13 04:38:37;;;;;;;;;;;18.50;36.80;;;;;;5075790;28;19942;-61
2022/12/13 04:41:04;;;;;;;;;;;18.50;36.80;;;;;;5085848;28;19919;-61
2022/12/13 04:43:33;;;;;;;;;;;18.50;36.80;;;;;;5099354;28;19920;-61
2022/12/13 04:46:00;;;;;;;;;;;18.50;36.80;;;;;;5115246;28;19927;-62
2022/12/13 04:48:28;;;;;;;;;;;18.50;36.80;;;;;;5091144;28;19927;-61
2022/12/13 04:50:55;;;;;;;;;;;18.50;36.80;;;;;;5121245;27;19920;-62
2022/12/13 04:53:25;;;;;;;;;;;18.50;36.80;;;;;;5097286;28;19928;-62
2022/12/13 04:55:51;;;;;;;;;;;18.50;36.80;;;;;;5078104;28;19950;-62
2022/12/13 04:58:18;;;;;;;;;;;18.50;36.80;;;;;;5093205;28;19969;-62
2022/12/13 05:00:45;;;;;;;;;;;18.50;36.90;;;;;;5095836;28;19981;-61
2022/12/13 05:03:12;;;;;;;;;;;18.50;36.90;;;;;;5115341;28;19926;-61
2022/12/13 05:05:40;;;;;;;;;;;18.50;36.90;;;;;;5096212;28;20001;-61
2022/12/13 05:08:07;;;;;;;;;;;18.50;36.90;;;;;;5099159;28;19973;-61
2022/12/13 05:10:34;;;;;;;;;;;18.50;36.90;;;;;;5094838;28;19920;-62
2022/12/13 05:13:01;;;;;;;;;;;18.50;36.90;;;;;;5098556;28;19963;-61
2022/12/13 05:15:28;;;;;;;;;;;18.50;36.90;;;;;;5096007;28;19927;-62
2022/12/13 05:17:55;;;;;;;;;;;18.50;36.90;;;;;;5096990;28;20010;-62
2022/12/13 05:20:22;;;;;;;;;;;18.50;36.90;;;;;;5113751;27;19919;-61
2022/12/13 05:22:51;;;;;;;;;;;18.50;37.00;;;;;;5102747;28;19927;-62
2022/12/13 05:25:17;;;;;;;;;;;18.50;36.90;;;;;;5116829;28;19923;-61
2022/12/13 05:27:44;;;;;;;;;;;18.50;36.90;;;;;;5114451;28;19923;-61
2022/12/13 05:30:11;;;;;;;;;;;18.50;36.90;;;;;;5094699;28;19929;-62
2022/12/13 05:32:38;;;;;;;;;;;18.50;37.00;;;;;;5098387;28;19920;-62
2022/12/13 05:35:05;;;;;;;;;;;18.50;37.00;;;;;;5096250;28;19974;-61
2022/12/13 05:37:32;;;;;;;;;;;18.50;37.00;;;;;;5098178;28;19969;-62
2022/12/13 05:40:01;;;;;;;;;;;18.50;37.00;;;;;;5095907;28;19920;-61
2022/12/13 05:42:27;;;;;;;;;;;18.50;37.00;;;;;;5130912;27;20016;-65
2022/12/13 05:44:54;;;;;;;;;;;18.50;37.00;;;;;;5098323;28;19927;-61
2022/12/13 05:47:21;;;;;;;;;;;18.50;37.00;;;;;;5094785;28;19927;-62
2022/12/13 05:49:47;;;;;;;;;;;18.50;37.00;;;;;;5098200;28;19920;-62
2022/12/13 05:52:17;;;;;;;;;;;18.50;37.00;;;;;;5094807;28;19920;-61
2022/12/13 05:54:44;;;;;;;;;;;18.50;37.00;;;;;;5097761;28;19989;-62
2022/12/13 05:57:13;;;;;;;;;;;18.50;37.00;;;;;;5096123;28;19920;-62
2022/12/13 05:59:40;;;;;;;;;;;18.50;37.00;;;;;;5108469;28;20278;-62
2022/12/13 06:02:06;;;;;;;;;;;18.50;37.00;;;;;;5095559;28;20377;-62
2022/12/13 06:04:33;;;;;;;;;;;18.50;37.00;;;;;;5097838;28;19947;-61
2022/12/13 06:07:00;;;;;;;;;;;18.50;37.00;;;;;;5095572;28;19934;-62
2022/12/13 06:09:26;;;;;;;;;;;18.50;37.00;;;;;;5097376;28;20001;-62
2022/12/13 06:11:53;;;;;;;;;;;18.50;37.00;;;;;;5093667;28;20301;-61
2022/12/13 06:14:22;;;;;;;;;;;18.50;37.00;;;;;;5112201;28;19923;-61
2022/12/13 06:16:48;;;;;;;;;;;18.50;37.00;;;;;;5092673;28;19920;-62
2022/12/13 06:19:15;;;;;;;;;;;18.50;37.00;;;;;;5097603;28;19943;-61
2022/12/13 06:21:42;;;;;;;;;;;18.50;37.10;;;;;;5096953;28;19920;-61
2022/12/13 06:24:09;;;;;;;;;;;18.50;37.10;;;;;;5113450;27;20304;-62
2022/12/13 06:26:35;;;;;;;;;;;18.50;37.10;;;;;;5097738;28;19920;-62
2022/12/13 06:29:02;;;;;;;;;;;18.50;37.10;;;;;;5093839;28;19959;-62
2022/12/13 06:31:30;;;;;;;;;;;18.50;37.10;;;;;;5115586;28;19927;-62
2022/12/13 06:34:00;;;;;;;;;;;18.50;37.10;;;;;;5112876;28;19924;-61
2022/12/13 06:36:27;;;;;;;;;;;18.50;37.10;;;;;;5117001;27;19972;-62
2022/12/13 06:38:54;;;;;;;;;;;18.50;37.10;;;;;;5117423;27;19924;-62
2022/12/13 06:41:21;;;;;;;;;;;18.50;37.10;;;;;;5113866;28;19991;-62
2022/12/13 06:43:47;;;;;;;;;;;18.50;37.10;;;;;;5110831;28;19950;-61
2022/12/13 06:46:14;;;;;;;;;;;18.50;37.10;;;;;;5111048;28;19984;-62
2022/12/13 06:48:43;;;;;;;;;;;18.50;37.20;;;;;;5114581;28;19955;-61
2022/12/13 06:51:10;;;;;;;;;;;18.50;37.20;;;;;;5110610;28;19955;-62
2022/12/13 06:53:37;;;;;;;;;;;18.50;37.20;;;;;;5114292;28;19973;-62
2022/12/13 06:56:04;;;;;;;;;;;18.50;37.80;;;;;;5111021;28;19942;-63
2022/12/13 06:58:31;;;;;;;;;;;18.50;37.30;;;;;;5114601;28;19933;-63
2022/12/13 07:01:00;;;;;;;;;;;18.50;37.20;;;;;;5111515;28;19923;-62
2022/12/13 07:03:28;;;;;;;;;;;18.50;37.20;;;;;;5110944;28;19965;-62
2022/12/13 07:05:56;;;;;;;;;;;18.50;37.30;;;;;;5113301;28;19928;-63
2022/12/13 07:08:23;;;;;;;;;;;18.50;37.20;;;;;;5111206;28;19932;-63
2022/12/13 07:10:49;;;;;;;;;;;18.50;37.30;;;;;;5113340;28;19923;-61
2022/12/13 07:13:16;;;;;;;;;;;18.50;37.30;;;;;;5114766;28;19926;-62
2022/12/13 07:15:44;;;;;;;;;;;18.50;37.30;;;;;;5111927;28;19923;-62
2022/12/13 07:18:11;;;;;;;;;;;18.50;37.30;;;;;;5113547;28;20300;-62
2022/12/13 07:20:38;;;;;;;;;;;18.50;37.30;;;;;;5111127;28;19920;-63
2022/12/13 07:23:06;;;;;;;;;;;18.50;37.30;;;;;;5111381;28;19927;-63
2022/12/13 07:25:33;;;;;;;;;;;18.50;37.30;;;;;;5114264;28;19920;-62
2022/12/13 07:28:00;;;;;;;;;;;18.50;37.30;;;;;;5109381;28;19919;-63
2022/12/13 07:30:27;;;;;;;;;;;18.50;37.30;;;;;;5110870;28;19936;-62
2022/12/13 07:32:54;;;;;;;;;;;18.50;37.40;;;;;;5113181;28;19920;-63
2022/12/13 07:35:21;;;;;;;;;;;18.50;37.40;;;;;;5110154;28;19920;-62
2022/12/13 07:37:48;;;;;;;;;;;18.50;37.40;;;;;;5111924;28;19973;-62
2022/12/13 07:40:16;;;;;;;;;;;18.50;37.40;;;;;;5112852;28;19930;-62
2022/12/13 07:42:48;;;;;;;;;;;18.50;37.40;;;;;;5110577;28;19985;-62
2022/12/13 07:45:17;;;;;;;;;;;18.50;37.40;;;;;;5114346;28;19923;-63
2022/12/13 07:47:43;;;;;;;;;;;18.50;37.40;;;;;;5111370;28;19985;-62
2022/12/13 07:50:10;;;;;;;;;;;18.50;37.40;;;;;;5114716;28;19949;-62
2022/12/13 07:52:37;;;;;;;;;;;18.50;37.40;;;;;;5116475;28;19920;-63
2022/12/13 07:55:06;;;;;;;;;;;18.50;37.40;;;;;;5114520;28;19920;-63
2022/12/13 07:57:34;;;;;;;;;;;18.50;37.50;;;;;;5114458;28;19959;-62
2022/12/13 08:00:02;;;;;;;;;;;18.50;37.40;;;;;;5110664;28;19924;-62
2022/12/13 08:02:28;;;;;;;;;;;18.50;37.40;;;;;;5168909;27;19924;-62
2022/12/13 08:04:55;;;;;;;;;;;18.50;37.50;;;;;;5167511;27;19928;-65
2022/12/13 08:07:22;;;;;;;;;;;18.50;37.50;;;;;;5112017;28;19919;-62
2022/12/13 08:09:49;;;;;;;;;;;18.50;37.50;;;;;;5112152;28;20356;-62
2022/12/13 08:12:15;;;;;;;;;;;18.50;37.50;;;;;;5114023;28;19985;-63
2022/12/13 08:14:44;;;;;;;;;;;18.50;37.50;;;;;;5116303;27;19993;-61
2022/12/13 08:17:10;;;;;;;;;;;18.50;37.50;;;;;;5116390;28;20358;-62
2022/12/13 08:19:37;;;;;;;;;;;18.50;37.50;;;;;;5108984;28;20366;-63
2022/12/13 08:22:04;;;;;;;;;;;18.50;37.50;;;;;;5123233;27;19919;-62
2022/12/13 08:24:31;;;;;;;;;;;18.50;37.50;;;;;;5115930;28;19920;-62
2022/12/13 08:26:59;;;;;;;;;;;18.50;37.50;;;;;;5116448;28;19920;-61
2022/12/13 08:29:26;;;;;;;;;;;18.50;37.50;;;;;;5115003;28;19924;-62
2022/12/13 08:31:54;;;;;;;;;;;18.50;37.50;;;;;;5100373;28;20297;-62
2022/12/13 08:34:21;;;;;;;;;;;18.50;37.50;;;;;;5111628;28;19973;-63
2022/12/13 08:36:48;;;;;;;;;;;18.50;37.50;;;;;;5115892;28;19927;-60
2022/12/13 08:39:14;;;;;;;;;;;18.50;37.50;;;;;;5113657;28;19920;-62
2022/12/13 08:41:41;;;;;;;;;;;18.50;37.50;;;;;;5113962;28;20275;-62
2022/12/13 08:44:08;;;;;;;;;;;18.50;37.50;;;;;;5150500;27;20300;-62
2022/12/13 08:46:35;;;;;;;;;;;18.50;37.50;;;;;;5151288;27;19920;-62
2022/12/13 08:49:03;;;;;;;;;;;18.50;37.50;;;;;;5111628;28;19919;-63
2022/12/13 08:51:30;;;;;;;;;;;18.50;37.50;;;;;;5114797;28;19926;-61
2022/12/13 08:53:56;;;;;;;;;;;18.50;37.50;;;;;;5113404;28;19965;-61
2022/12/13 08:56:23;;;;;;;;;;;18.50;37.00;;;;;;5114490;28;19942;-61
2022/12/13 08:58:50;;;;;;;;;;;18.50;36.20;;;;;;5117267;28;19919;-61
2022/12/13 09:01:17;;;;;;;;;;;18.50;35.60;;;;;;5114591;28;19923;-63
2022/12/13 09:03:44;;;;;;;;;;;18.40;34.80;;;;;;5113215;28;19924;-61
2022/12/13 09:06:13;;;;;;;;;;;18.40;34.30;;;;;;5139195;27;20339;-64
2022/12/13 09:08:40;;;;;;;;;;;18.30;34.40;;;;;;5099272;28;19920;-61
2022/12/13 09:11:07;;;;;;;;;;;18.30;34.90;;;;;;5105170;28;20023;-63
2022/12/13 09:13:34;;;;;;;;;;;18.40;35.90;;;;;;5116873;28;20017;-62
2022/12/13 09:16:03;;;;;;;;;;;18.30;35.50;;;;;;5097027;28;19950;-62
2022/12/13 09:18:30;;;;;;;;;;;18.30;35.70;;;;;;5097066;28;19926;-63
2022/12/13 09:20:57;;;;;;;;;;;18.30;35.80;;;;;;5095248;28;20030;-63
2022/12/13 09:23:25;;;;;;;;;;;18.40;36.10;;;;;;5092375;28;19920;-63
2022/12/13 09:25:55;;;;;;;;;;;18.30;36.10;;;;;;5098236;28;19927;-63
2022/12/13 09:28:22;;;;;;;;;;;18.30;36.20;;;;;;5096025;28;19955;-62
2022/12/13 09:30:49;;;;;;;;;;;18.40;36.40;;;;;;5096244;28;20014;-63
2022/12/13 09:33:16;;;;;;;;;;;18.40;36.40;;;;;;5098610;28;19926;-63
2022/12/13 09:35:43;;;;;;;;;;;18.40;36.50;;;;;;5104682;27;19920;-62
2022/12/13 09:38:10;;;;;;;;;;;18.40;36.50;;;;;;5109514;28;19920;-63
2022/12/13 09:40:38;;;;;;;;;;;18.40;36.60;;;;;;5097249;28;19927;-63
2022/12/13 09:43:05;;;;;;;;;;;18.50;36.80;;;;;;5095063;28;19920;-62
2022/12/13 09:45:32;;;;;;;;;;;18.40;36.70;;;;;;5114673;28;19920;-62
2022/12/13 09:47:59;;;;;;;;;;;18.40;36.70;;;;;;5096779;28;19920;-63
2022/12/13 09:50:27;;;;;;;;;;;18.40;36.80;;;;;;5097416;28;19920;-63
2022/12/13 09:52:53;;;;;;;;;;;18.50;36.90;;;;;;5096226;28;20312;-62
2022/12/13 09:55:21;;;;;;;;;;;18.50;36.90;;;;;;5109105;28;19926;-62
2022/12/13 09:57:49;;;;;;;;;;;18.50;37.00;;;;;;5111708;28;19969;-65
2022/12/13 10:00:17;;;;;;;;;;;18.50;37.00;;;;;;5116843;28;19919;-62
2022/12/13 10:02:44;;;;;;;;;;;18.50;37.00;;;;;;5114991;28;19973;-61
2022/12/13 10:05:16;;;;;;;;;;;18.50;37.00;;;;;;5113072;28;19927;-62
2022/12/13 10:07:42;;;;;;;;;;;18.50;37.10;;;;;;5123729;27;19920;-62
2022/12/13 10:10:09;;;;;;;;;;;18.50;37.10;;;;;;5136056;27;19919;-61
2022/12/13 10:12:36;;;;;;;;;;;18.50;37.10;;;;;;5118196;27;20265;-62
2022/12/13 10:15:05;;;;;;;;;;;18.50;37.10;;;;;;5113409;28;19920;-63
2022/12/13 10:17:32;;;;;;;;;;;18.50;37.10;;;;;;5115718;28;19972;-63
2022/12/13 10:19:59;;;;;;;;;;;18.60;37.20;;;;;;5095203;28;19972;-63
2022/12/13 10:22:25;;;;;;;;;;;18.60;37.30;;;;;;5095987;28;19927;-62
2022/12/13 10:24:53;;;;;;;;;;;18.60;37.30;;;;;;5095677;28;19927;-63
2022/12/13 10:27:20;;;;;;;;;;;18.60;37.30;;;;;;5095906;28;19920;-62
2022/12/13 10:29:57;;;;;;;;;;;18.60;37.30;;;;;;5097929;28;19930;-65
2022/12/13 10:32:25;;;;;;;;;;;18.60;37.30;;;;;;5097876;28;19927;-64
2022/12/13 10:34:54;;;;;;;;;;;18.60;37.30;;;;;;5094675;28;19966;-65
2022/12/13 10:37:25;;;;;;;;;;;18.60;37.30;;;;;;5095790;28;19968;-65
2022/12/13 10:39:51;;;;;;;;;;;18.60;37.40;;;;;;5095211;28;19926;-64
2022/12/13 10:42:19;;;;;;;;;;;18.60;37.40;;;;;;5095896;28;19924;-63
2022/12/13 10:44:45;;;;;;;;;;;18.60;37.40;;;;;;5090607;28;19924;-65
2022/12/13 10:47:15;;;;;;;;;;;18.60;37.40;;;;;;5115609;28;20018;-65
2022/12/13 10:49:48;;;;;;;;;;;18.60;37.40;;;;;;5108384;27;19926;-63
2022/12/13 10:52:25;;;;;;;;;;;18.60;37.50;;;;;;5095222;28;19920;-63
2022/12/13 10:54:52;;;;;;;;;;;18.60;37.50;;;;;;5097520;28;19963;-62
2022/12/13 10:57:19;;;;;;;;;;;18.60;37.50;;;;;;5113376;28;20400;-62
2022/12/13 10:59:46;;;;;;;;;;;18.70;37.60;;;;;;5096232;28;19969;-65
2022/12/13 11:02:29;;;;;;;;;;;18.70;37.60;;;;;;5113825;28;19920;-63
2022/12/13 11:04:57;;;;;;;;;;;18.70;37.60;;;;;;5112354;28;19920;-63
2022/12/13 11:07:25;;;;;;;;;;;18.70;37.60;;;;;;5095111;28;19926;-62
2022/12/13 11:09:54;;;;;;;;;;;18.70;37.60;;;;;;5096829;28;20208;-64
2022/12/13 11:12:21;;;;;;;;;;;18.70;37.60;;;;;;5093876;28;20354;-63
2022/12/13 11:14:48;;;;;;;;;;;18.70;37.60;;;;;;5095201;28;19930;-63
2022/12/13 11:17:16;;;;;;;;;;;18.70;37.60;;;;;;5096308;28;19927;-64
2022/12/13 11:19:44;;;;;;;;;;;18.70;37.70;;;;;;5096455;28;19920;-64
2022/12/13 11:22:18;;;;;;;;;;;18.70;37.70;;;;;;5094114;28;19927;-64
2022/12/13 11:24:45;;;;;;;;;;;18.70;37.70;;;;;;5094782;28;19924;-63
2022/12/13 11:27:21;;;;;;;;;;;18.70;37.70;;;;;;5096777;28;19969;-63
2022/12/13 11:29:54;;;;;;;;;;;18.70;37.70;;;;;;5093998;28;19920;-63
2022/12/13 11:32:22;;;;;;;;;;;18.70;37.70;;;;;;5094864;28;19920;-62
2022/12/13 11:34:51;;;;;;;;;;;18.70;37.70;;;;;;5094411;28;19924;-63
2022/12/13 11:37:20;;;;;;;;;;;18.70;37.80;;;;;;5114520;28;19926;-62
2022/12/13 11:39:48;;;;;;;;;;;18.70;37.80;;;;;;5095462;28;20377;-62
2022/12/13 11:42:16;;;;;;;;;;;18.70;37.70;;;;;;5093544;28;19927;-63
2022/12/13 11:44:45;;;;;;;;;;;18.70;37.80;;;;;;5089889;28;19919;-63
2022/12/13 11:47:13;;;;;;;;;;;18.70;37.80;;;;;;5093713;28;19920;-63
2022/12/13 11:49:40;;;;;;;;;;;18.70;37.80;;;;;;5096319;28;19927;-63
2022/12/13 11:52:11;;;;;;;;;;;18.70;37.90;;;;;;5096374;28;20377;-62
2022/12/13 11:54:40;;;;;;;;;;;18.70;37.80;;;;;;5116696;28;19919;-64
2022/12/13 11:57:09;;;;;;;;;;;18.70;37.80;;;;;;5096867;28;19920;-64
2022/12/13 11:59:37;;;;;;;;;;;18.80;37.90;;;;;;5100348;28;19920;-63
2022/12/13 12:02:05;;;;;;;;;;;18.70;37.90;;;;;;5097381;28;19920;-64
2022/12/13 12:04:34;;;;;;;;;;;18.80;38.00;;;;;;5097410;28;19933;-65
2022/12/13 12:07:03;;;;;;;;;;;18.80;37.90;;;;;;5100115;28;19950;-65
2022/12/13 12:09:30;;;;;;;;;;;18.80;37.90;;;;;;5100173;28;19931;-63
2022/12/13 12:12:00;;;;;;;;;;;18.80;38.00;;;;;;5099555;28;19920;-61
2022/12/13 12:14:31;;;;;;;;;;;18.80;38.00;;;;;;5115669;28;20027;-62
2022/12/13 12:16:58;;;;;;;;;;;18.80;37.80;;;;;;5096480;28;19920;-62
2022/12/13 12:19:25;;;;;;;;;;;18.80;37.70;;;;;;5100375;28;20422;-62
2022/12/13 12:22:02;;;;;;;;;;;18.80;37.60;;;;;;5097928;28;19920;-62
2022/12/13 12:24:31;;;;;;;;;;;18.80;37.50;;;;;;5096949;28;19919;-63
2022/12/13 12:27:00;;;;;;;;;;;18.80;37.50;;;;;;5099752;28;19926;-61
2022/12/13 12:29:32;;;;;;;;;;;18.70;37.40;;;;;;5114691;28;19949;-62
2022/12/13 12:32:00;;;;;;;;;;;18.70;37.40;;;;;;5116692;28;19949;-62
2022/12/13 12:34:29;;;;;;;;;;;18.70;37.40;;;;;;5097673;28;19928;-62
2022/12/13 12:36:59;;;;;;;;;;;18.70;37.50;;;;;;5105365;28;19980;-62
2022/12/13 12:39:43;;;;;;;;;;;18.70;37.50;;;;;;5115248;28;19930;-64
2022/12/13 12:42:25;;;;;;;;;;;18.70;37.50;;;;;;5114384;28;19920;-63
2022/12/13 12:44:57;;;;;;;;;;;18.70;37.50;;;;;;5116551;28;19919;-64
2022/12/13 12:47:27;;;;;;;;;;;18.70;37.60;;;;;;5114836;28;19920;-63
2022/12/13 12:50:01;;;;;;;;;;;18.70;37.60;;;;;;5109451;28;19965;-63
2022/12/13 12:52:29;;;;;;;;;;;18.70;37.60;;;;;;5114015;28;20277;-64
2022/12/13 12:55:02;;;;;;;;;;;18.70;37.60;;;;;;5116208;28;19920;-63
2022/12/13 12:57:32;;;;;;;;;;;18.70;37.70;;;;;;5114005;28;19919;-63
2022/12/13 13:00:02;;;;;;;;;;;18.70;37.70;;;;;;5099064;28;19920;-63
2022/12/13 13:02:31;;;;;;;;;;;18.70;37.70;;;;;;5095957;28;19920;-62
2022/12/13 13:05:04;;;;;;;;;;;18.70;37.70;;;;;;5116775;28;19919;-62
2022/12/13 13:07:32;;;;;;;;;;;18.80;37.80;;;;;;5097507;28;19923;-62
2022/12/13 13:09:58;;;;;;;;;;;18.70;37.80;;;;;;5097672;28;19920;-62
2022/12/13 13:12:25;;;;;;;;;;;18.80;37.90;;;;;;5096793;28;19920;-62
2022/12/13 13:14:52;;;;;;;;;;;18.80;38.50;;;;;;5098753;28;19920;-62
2022/12/13 13:17:37;;;;;;;;;;;18.80;37.90;;;;;;5093127;28;19919;-63
2022/12/13 13:20:19;;;;;;;;;;;18.80;37.90;;;;;;5098310;28;19924;-63
2022/12/13 13:22:45;;;;;;;;;;;18.80;37.90;;;;;;5099489;28;19920;-62
2022/12/13 13:25:26;;;;;;;;;;;18.80;38.00;;;;;;5098848;28;19969;-63
2022/12/13 13:27:53;;;;;;;;;;;18.80;38.00;;;;;;5117029;28;19927;-63
2022/12/13 13:30:20;;;;;;;;;;;18.80;38.00;;;;;;5098065;28;19919;-62
2022/12/13 13:32:47;;;;;;;;;;;18.80;38.00;;;;;;5115966;28;20350;-62
2022/12/13 13:35:32;;;;;;;;;;;18.80;38.10;;;;;;5116594;28;20277;-63
2022/12/13 13:38:00;;;;;;;;;;;18.80;38.10;;;;;;5115136;28;19924;-62
2022/12/13 13:40:28;;;;;;;;;;;18.80;38.10;;;;;;5115088;28;19924;-62
2022/12/13 13:43:02;;;;;;;;;;;18.80;38.10;;;;;;5115356;28;19920;-63
2022/12/13 13:45:30;;;;;;;;;;;18.80;38.10;;;;;;5114907;28;19920;-63
2022/12/13 13:48:12;;;;;;;;;;;18.80;38.10;;;;;;5115233;28;19920;-64
2022/12/13 13:51:02;;;;;;;;;;;18.80;38.20;;;;;;5106380;28;19927;-64
2022/12/13 13:53:44;;;;;;;;;;;18.80;38.20;;;;;;5115784;28;19920;-63
2022/12/13 13:56:17;;;;;;;;;;;18.80;38.20;;;;;;5113157;28;19923;-64
2022/12/13 13:59:02;;;;;;;;;;;18.80;38.20;;;;;;5115105;28;20015;-63
2022/12/13 14:01:33;;;;;;;;;;;18.80;38.20;;;;;;5116286;28;19927;-63
2022/12/13 14:04:09;;;;;;;;;;;18.80;38.20;;;;;;5114864;28;19923;-63
2022/12/13 14:06:46;;;;;;;;;;;18.80;38.20;;;;;;5116173;28;19973;-62
2022/12/13 14:09:14;;;;;;;;;;;18.80;38.20;;;;;;5115496;28;19959;-64
2022/12/13 14:11:49;;;;;;;;;;;18.80;38.20;;;;;;5114547;28;19993;-63
2022/12/13 14:14:23;;;;;;;;;;;18.80;38.30;;;;;;5114226;28;19989;-65
2022/12/13 14:17:07;;;;;;;;;;;18.80;38.30;;;;;;5096674;28;20265;-64
2022/12/13 14:19:40;;;;;;;;;;;18.80;38.30;;;;;;5108031;28;19923;-65
2022/12/13 14:22:09;;;;;;;;;;;18.80;38.30;;;;;;5095414;28;19923;-65
2022/12/13 14:24:40;;;;;;;;;;;18.80;38.30;;;;;;5115028;28;20020;-64
2022/12/13 14:30:14;;;;;;;;;;;18.80;38.30;;;;;;5111913;27;19919;-63